Time;durP1;ratioP1;P1;durP2;ratioP2;P2;SDS_P1;SDS_P2;PMS_P1;PMS_P2;Temp;Humidity;BMP_temperature;BMP_pressure;BME280_temperature;BME280_humidity;BME280_pressure;Samples;Min_cycle;Max_cycle;Signal;HPM_P1;HPM_P2
2024/03/03 06:01:30;;;;;;;;;;;;;;;;;;5488705;23;19930;-51
2024/03/03 06:03:56;;;;;;;;;;;;;;;;;;4991006;28;19990;-51
2024/03/03 06:06:23;;;;;;;;;;;;;;;;;;4991121;28;19921;-49
2024/03/03 06:08:52;;;;;;;;;;;;;;;;;;4991213;28;19964;-50
2024/03/03 06:11:18;;;;;;;;;;;;;;;;;;4973536;28;19917;-50
2024/03/03 06:13:44;;;;;;;;;;;;;;;;;;4991171;28;19945;-47
2024/03/03 06:16:10;;;;;;;;;;;;;;;;;;4991120;28;19945;-50
2024/03/03 06:18:35;;;;;;;;;;;;;;;;;;4991141;28;19909;-51
2024/03/03 06:21:01;;;;;;;;;;;;;;;;;;4990881;28;19913;-50
2024/03/03 06:23:27;;;;;;;;;;;;;;;;;;4991322;28;19918;-52
2024/03/03 06:25:53;;;;;;;;;;;;;;;;;;4991002;28;20004;-47
2024/03/03 06:28:19;;;;;;;;;;;;;;;;;;4991047;28;19909;-48
2024/03/03 06:30:45;;;;;;;;;;;;;;;;;;4990839;28;19917;-47
2024/03/03 06:33:11;;;;;;;;;;;;;;;;;;4991052;28;19918;-47
2024/03/03 06:35:37;;;;;;;;;;;;;;;;;;4990987;28;19917;-47
2024/03/03 06:38:03;;;;;;;;;;;;;;;;;;4992875;28;19996;-47
2024/03/03 06:40:29;;;;;;;;;;;;;;;;;;4994728;28;19914;-51
2024/03/03 06:42:55;;;;;;;;;;;;;;;;;;4994394;28;19918;-50
2024/03/03 06:45:20;;;;;;;;;;;;;;;;;;4994541;28;19993;-48
2024/03/03 06:47:46;;;;;;;;;;;;;;;;;;4982679;28;19918;-50
2024/03/03 06:50:12;;;;;;;;;;;;;;;;;;4994504;28;19910;-48
2024/03/03 06:52:38;;;;;;;;;;;;;;;;;;4994674;28;20371;-51
2024/03/03 06:55:06;;;;;;;;;;;;;;;;;;4993279;28;19925;-47
2024/03/03 06:57:31;;;;;;;;;;;;;;;;;;4992236;28;19921;-49
2024/03/03 06:59:57;;;;;;;;;;;;;;;;;;4991227;28;19909;-47
2024/03/03 07:02:56;;;;;;;;;;;;;;;;;;4993685;28;19918;-51
2024/03/03 07:05:09;;;;;;;;;;;;;;;;;;4994327;28;20004;-49
2024/03/03 07:07:35;;;;;;;;;;;;;;;;;;4994535;28;20009;-47
2024/03/03 07:10:01;;;;;;;;;;;;;;;;;;4993984;28;19957;-50
2024/03/03 07:12:27;;;;;;;;;;;;;;;;;;4993980;28;19932;-47
2024/03/03 07:14:53;;;;;;;;;;;;;;;;;;4994022;28;19953;-48
2024/03/03 07:17:18;;;;;;;;;;;;;;;;;;4993760;28;20258;-49
2024/03/03 07:19:44;;;;;;;;;;;;;;;;;;4993888;28;19933;-50
2024/03/03 07:22:10;;;;;;;;;;;;;;;;;;4993801;28;19937;-49
2024/03/03 07:24:37;;;;;;;;;;;;;;;;;;4993943;28;19910;-48
2024/03/03 07:27:02;;;;;;;;;;;;;;;;;;4994151;28;19910;-47
2024/03/03 07:29:28;;;;;;;;;;;;;;;;;;4993672;28;20313;-49
2024/03/03 07:31:54;;;;;;;;;;;;;;;;;;4985967;28;19921;-50
2024/03/03 07:34:20;;;;;;;;;;;;;;;;;;4986427;28;19921;-49
2024/03/03 07:36:46;;;;;;;;;;;;;;;;;;4994422;28;19916;-50
2024/03/03 07:39:12;;;;;;;;;;;;;;;;;;4994445;28;19910;-49
2024/03/03 07:41:38;;;;;;;;;;;;;;;;;;4993484;28;19925;-48
2024/03/03 07:44:06;;;;;;;;;;;;;;;;;;4994651;28;19957;-50
2024/03/03 07:46:34;;;;;;;;;;;;;;;;;;4976801;28;19913;-49
2024/03/03 07:49:00;;;;;;;;;;;;;;;;;;4994047;28;19910;-47
2024/03/03 07:51:26;;;;;;;;;;;;;;;;;;4992486;28;19960;-49
2024/03/03 07:53:51;;;;;;;;;;;;;;;;;;4993558;28;20419;-50
2024/03/03 07:56:17;;;;;;;;;;;;;;;;;;4994131;28;19916;-50
2024/03/03 07:58:43;;;;;;;;;;;;;;;;;;4994161;28;19917;-47
2024/03/03 08:01:09;;;;;;;;;;;;;;;;;;4993055;28;19925;-47
2024/03/03 08:03:35;;;;;;;;;;;;;;;;;;4993188;28;20004;-49
2024/03/03 08:06:01;;;;;;;;;;;;;;;;;;4993740;28;19933;-46
2024/03/03 08:08:27;;;;;;;;;;;;;;;;;;4993807;28;19909;-46
2024/03/03 08:10:53;;;;;;;;;;;;;;;;;;4992990;28;19937;-49
2024/03/03 08:13:19;;;;;;;;;;;;;;;;;;4993742;28;19972;-50
2024/03/03 08:15:45;;;;;;;;;;;;;;;;;;4993707;28;19914;-48
2024/03/03 08:18:11;;;;;;;;;;;;;;;;;;4993655;28;20288;-47
2024/03/03 08:20:37;;;;;;;;;;;;;;;;;;4991591;28;19914;-47
2024/03/03 08:23:02;;;;;;;;;;;;;;;;;;4993024;28;20367;-46
2024/03/03 08:25:29;;;;;;;;;;;;;;;;;;4992384;28;19909;-50
2024/03/03 08:28:01;;;;;;;;;;;;;;;;;;4993171;28;19914;-47
2024/03/03 08:30:27;;;;;;;;;;;;;;;;;;4993585;28;19910;-49
2024/03/03 08:32:52;;;;;;;;;;;;;;;;;;4993415;28;20387;-47
2024/03/03 08:35:18;;;;;;;;;;;;;;;;;;4992868;28;20272;-47
2024/03/03 08:37:45;;;;;;;;;;;;;;;;;;4993142;28;19921;-46
2024/03/03 08:40:11;;;;;;;;;;;;;;;;;;4990942;28;19914;-47
2024/03/03 08:42:37;;;;;;;;;;;;;;;;;;4991628;28;20286;-50
2024/03/03 08:45:03;;;;;;;;;;;;;;;;;;4993365;28;19910;-47
2024/03/03 08:47:29;;;;;;;;;;;;;;;;;;4993164;28;20458;-49
2024/03/03 08:49:55;;;;;;;;;;;;;;;;;;4993094;28;19916;-51
2024/03/03 08:52:21;;;;;;;;;;;;;;;;;;4992120;28;19910;-51
2024/03/03 08:54:47;;;;;;;;;;;;;;;;;;4993215;28;20347;-51
2024/03/03 08:57:13;;;;;;;;;;;;;;;;;;4992998;28;19953;-49
2024/03/03 08:59:39;;;;;;;;;;;;;;;;;;4989331;28;19913;-51
2024/03/03 09:02:05;;;;;;;;;;;;;;;;;;4986789;28;20253;-48
2024/03/03 09:04:37;;;;;;;;;;;;;;;;;;4992802;28;19909;-51
2024/03/03 09:07:04;;;;;;;;;;;;;;;;;;4992658;28;19992;-50
2024/03/03 09:09:30;;;;;;;;;;;;;;;;;;4992864;28;20332;-46
2024/03/03 09:11:55;;;;;;;;;;;;;;;;;;4991800;28;19914;-49
2024/03/03 09:14:21;;;;;;;;;;;;;;;;;;4990586;28;19917;-49
2024/03/03 09:16:47;;;;;;;;;;;;;;;;;;4985388;28;19911;-47
2024/03/03 09:19:13;;;;;;;;;;;;;;;;;;4981448;28;19944;-51
2024/03/03 09:21:40;;;;;;;;;;;;;;;;;;4991692;28;19917;-47
2024/03/03 09:24:06;;;;;;;;;;;;;;;;;;4995605;28;20379;-49
2024/03/03 09:26:32;;;;;;;;;;;;;;;;;;5006504;28;19937;-48
2024/03/03 09:28:58;;;;;;;;;;;;;;;;;;4991929;28;19910;-48
2024/03/03 09:31:24;;;;;;;;;;;;;;;;;;4991241;28;19981;-51
2024/03/03 09:33:49;;;;;;;;;;;;;;;;;;5010181;28;20458;-48
2024/03/03 09:36:15;;;;;;;;;;;;;;;;;;5564722;23;19934;-46
2024/03/03 09:38:41;;;;;;;;;;;;;;;;;;4976020;28;19977;-46
2024/03/03 09:41:07;;;;;;;;;;;;;;;;;;4974168;28;19921;-46
2024/03/03 09:43:33;;;;;;;;;;;;;;;;;;4968024;28;19986;-45
2024/03/03 09:45:59;;;;;;;;;;;;;;;;;;4953289;29;20299;-46
2024/03/03 09:48:25;;;;;;;;;;;;;;;;;;4953393;29;19919;-44
2024/03/03 09:50:52;;;;;;;;;;;;;;;;;;4972418;28;20012;-45
2024/03/03 09:53:17;;;;;;;;;;;;;;;;;;4980778;28;19911;-44
2024/03/03 09:55:43;;;;;;;;;;;;;;;;;;4969259;28;20398;-43
2024/03/03 09:58:09;;;;;;;;;;;;;;;;;;4971403;28;19921;-44
2024/03/03 10:00:35;;;;;;;;;;;;;;;;;;4971041;28;19989;-43
2024/03/03 10:03:02;;;;;;;;;;;;;;;;;;4970338;28;19924;-44
2024/03/03 10:05:28;;;;;;;;;;;;;;;;;;4971463;28;20381;-43
2024/03/03 10:07:54;;;;;;;;;;;;;;;;;;4979653;28;19953;-44
2024/03/03 10:10:20;;;;;;;;;;;;;;;;;;4990134;28;19920;-42
2024/03/03 10:12:46;;;;;;;;;;;;;;;;;;4976743;28;19921;-41
2024/03/03 10:15:12;;;;;;;;;;;;;;;;;;4978419;28;19988;-43
2024/03/03 10:17:38;;;;;;;;;;;;;;;;;;4982960;28;20283;-43
2024/03/03 10:20:06;;;;;;;;;;;;;;;;;;4979806;28;19910;-44
2024/03/03 10:22:32;;;;;;;;;;;;;;;;;;4975698;28;20311;-43
2024/03/03 10:24:58;;;;;;;;;;;;;;;;;;4982743;28;19930;-43
2024/03/03 10:27:24;;;;;;;;;;;;;;;;;;4990176;28;20375;-43
2024/03/03 10:29:50;;;;;;;;;;;;;;;;;;4986994;28;20000;-44
2024/03/03 10:32:16;;;;;;;;;;;;;;;;;;4975387;28;19910;-43
2024/03/03 10:34:42;;;;;;;;;;;;;;;;;;4974076;28;19910;-43
2024/03/03 10:37:08;;;;;;;;;;;;;;;;;;4975236;28;19925;-43
2024/03/03 10:39:34;;;;;;;;;;;;;;;;;;4987262;28;19910;-43
2024/03/03 10:41:59;;;;;;;;;;;;;;;;;;4993565;28;19914;-43
2024/03/03 10:44:25;;;;;;;;;;;;;;;;;;4988364;28;19922;-45
2024/03/03 10:46:51;;;;;;;;;;;;;;;;;;4993292;28;20001;-45
2024/03/03 10:49:18;;;;;;;;;;;;;;;;;;4990730;28;20375;-45
2024/03/03 10:51:44;;;;;;;;;;;;;;;;;;4993655;28;19910;-45
2024/03/03 10:54:10;;;;;;;;;;;;;;;;;;4993474;28;19910;-45
2024/03/03 10:56:36;;;;;;;;;;;;;;;;;;4986523;28;19992;-45
2024/03/03 10:59:01;;;;;;;;;;;;;;;;;;4993259;28;20008;-45
2024/03/03 11:01:28;;;;;;;;;;;;;;;;;;4980147;28;19969;-49
2024/03/03 11:03:54;;;;;;;;;;;;;;;;;;4984655;28;19922;-45
2024/03/03 11:06:20;;;;;;;;;;;;;;;;;;4981340;28;19914;-45
2024/03/03 11:08:49;;;;;;;;;;;;;;;;;;4974627;28;19910;-45
2024/03/03 11:11:15;;;;;;;;;;;;;;;;;;4974746;28;19910;-48
2024/03/03 11:13:41;;;;;;;;;;;;;;;;;;4973933;28;20329;-46
2024/03/03 11:16:07;;;;;;;;;;;;;;;;;;4974568;28;19953;-47
2024/03/03 11:18:33;;;;;;;;;;;;;;;;;;4973505;28;19941;-44
2024/03/03 11:20:59;;;;;;;;;;;;;;;;;;4972479;28;19917;-44
2024/03/03 11:23:24;;;;;;;;;;;;;;;;;;4973901;28;20426;-45
2024/03/03 11:25:54;;;;;;;;;;;;;;;;;;4974472;28;19917;-44
2024/03/03 11:28:20;;;;;;;;;;;;;;;;;;4988546;28;20013;-45
2024/03/03 11:30:46;;;;;;;;;;;;;;;;;;4991149;28;20470;-46
2024/03/03 11:33:12;;;;;;;;;;;;;;;;;;4988627;28;19917;-44
2024/03/03 11:35:38;;;;;;;;;;;;;;;;;;4992737;28;19913;-46
2024/03/03 11:38:03;;;;;;;;;;;;;;;;;;4989668;28;19921;-45
2024/03/03 11:40:31;;;;;;;;;;;;;;;;;;4992514;28;19917;-45
2024/03/03 11:42:57;;;;;;;;;;;;;;;;;;4992799;28;19917;-44
2024/03/03 11:45:23;;;;;;;;;;;;;;;;;;4993044;28;19916;-44
2024/03/03 11:47:49;;;;;;;;;;;;;;;;;;4980272;28;19949;-45
2024/03/03 11:50:15;;;;;;;;;;;;;;;;;;4974182;28;19918;-45
2024/03/03 11:52:41;;;;;;;;;;;;;;;;;;4972794;28;19914;-47
2024/03/03 11:55:08;;;;;;;;;;;;;;;;;;4974124;28;19921;-45
2024/03/03 11:57:34;;;;;;;;;;;;;;;;;;4974491;28;19910;-46
2024/03/03 12:00:00;;;;;;;;;;;;;;;;;;4974568;28;20288;-46
2024/03/03 12:02:26;;;;;;;;;;;;;;;;;;4973862;28;20342;-46
2024/03/03 12:04:52;;;;;;;;;;;;;;;;;;4975265;28;19926;-45
2024/03/03 12:07:18;;;;;;;;;;;;;;;;;;4971678;28;19914;-45
2024/03/03 12:09:44;;;;;;;;;;;;;;;;;;4982950;28;19914;-46
2024/03/03 12:12:10;;;;;;;;;;;;;;;;;;4976501;28;19947;-45
2024/03/03 12:14:36;;;;;;;;;;;;;;;;;;4985395;28;19921;-45
2024/03/03 12:17:02;;;;;;;;;;;;;;;;;;4976256;28;19914;-44
2024/03/03 12:19:28;;;;;;;;;;;;;;;;;;4973957;28;19910;-45
2024/03/03 12:21:54;;;;;;;;;;;;;;;;;;4982055;28;20319;-45
2024/03/03 12:24:20;;;;;;;;;;;;;;;;;;4969827;28;19918;-44
2024/03/03 12:26:46;;;;;;;;;;;;;;;;;;4972883;28;19957;-45
2024/03/03 12:29:12;;;;;;;;;;;;;;;;;;4974135;28;19910;-47
2024/03/03 12:31:38;;;;;;;;;;;;;;;;;;4974123;28;20024;-46
2024/03/03 12:34:04;;;;;;;;;;;;;;;;;;4977108;28;19914;-45
2024/03/03 12:36:31;;;;;;;;;;;;;;;;;;4983016;28;19982;-45
2024/03/03 12:38:57;;;;;;;;;;;;;;;;;;4979535;28;19913;-47
2024/03/03 12:41:23;;;;;;;;;;;;;;;;;;4987542;28;19920;-44
2024/03/03 12:43:49;;;;;;;;;;;;;;;;;;4976779;28;19969;-44
2024/03/03 12:46:15;;;;;;;;;;;;;;;;;;4975625;28;20410;-44
2024/03/03 12:48:41;;;;;;;;;;;;;;;;;;4973882;28;19910;-45
2024/03/03 12:51:06;;;;;;;;;;;;;;;;;;4972992;28;19918;-45
2024/03/03 12:53:32;;;;;;;;;;;;;;;;;;4973857;28;19993;-45
2024/03/03 12:56:00;;;;;;;;;;;;;;;;;;4972919;28;20347;-45
2024/03/03 12:58:26;;;;;;;;;;;;;;;;;;4971460;28;19968;-46
2024/03/03 13:00:53;;;;;;;;;;;;;;;;;;4971251;28;19913;-47
2024/03/03 13:03:19;;;;;;;;;;;;;;;;;;4970663;28;19925;-45
2024/03/03 13:05:45;;;;;;;;;;;;;;;;;;4967729;28;20009;-44
2024/03/03 13:08:11;;;;;;;;;;;;;;;;;;4971118;28;20065;-44
2024/03/03 13:10:37;;;;;;;;;;;;;;;;;;4976906;28;19921;-44
2024/03/03 13:13:03;;;;;;;;;;;;;;;;;;4980349;28;19914;-44
2024/03/03 13:15:29;;;;;;;;;;;;;;;;;;4970995;28;19910;-43
2024/03/03 13:17:55;;;;;;;;;;;;;;;;;;4963029;28;19940;-43
2024/03/03 13:20:21;;;;;;;;;;;;;;;;;;4951468;29;19910;-43
2024/03/03 13:22:47;;;;;;;;;;;;;;;;;;4963699;28;20445;-42
2024/03/03 13:25:13;;;;;;;;;;;;;;;;;;4969581;28;19969;-43
2024/03/03 13:27:39;;;;;;;;;;;;;;;;;;4969746;28;20441;-43
2024/03/03 13:30:06;;;;;;;;;;;;;;;;;;4971323;28;19922;-44
2024/03/03 13:32:32;;;;;;;;;;;;;;;;;;4966994;28;19918;-44
2024/03/03 13:34:58;;;;;;;;;;;;;;;;;;4978074;28;19914;-44
2024/03/03 13:37:24;;;;;;;;;;;;;;;;;;4968541;28;19929;-44
2024/03/03 13:39:50;;;;;;;;;;;;;;;;;;4978718;28;19968;-44
2024/03/03 13:42:16;;;;;;;;;;;;;;;;;;4977172;28;20312;-46
2024/03/03 13:44:42;;;;;;;;;;;;;;;;;;4970599;28;20012;-48
2024/03/03 13:47:08;;;;;;;;;;;;;;;;;;4954664;28;19914;-47
2024/03/03 13:49:34;;;;;;;;;;;;;;;;;;4968730;28;20388;-47
2024/03/03 13:52:00;;;;;;;;;;;;;;;;;;4976129;28;20292;-45
2024/03/03 13:54:26;;;;;;;;;;;;;;;;;;4970194;28;19950;-46
2024/03/03 13:56:52;;;;;;;;;;;;;;;;;;4963868;28;20022;-45
2024/03/03 13:59:17;;;;;;;;;;;;;;;;;;4959762;28;19914;-44
2024/03/03 14:01:43;;;;;;;;;;;;;;;;;;4969940;28;19922;-44
2024/03/03 14:04:09;;;;;;;;;;;;;;;;;;4984330;28;19918;-45
2024/03/03 14:06:36;;;;;;;;;;;;;;;;;;4970384;28;19918;-44
2024/03/03 14:09:05;;;;;;;;;;;;;;;;;;4968967;28;19921;-44
2024/03/03 14:11:31;;;;;;;;;;;;;;;;;;4973668;28;19968;-44
2024/03/03 14:13:57;;;;;;;;;;;;;;;;;;4969534;28;19996;-46
2024/03/03 14:16:23;;;;;;;;;;;;;;;;;;4973127;28;19915;-45
2024/03/03 14:18:49;;;;;;;;;;;;;;;;;;4979453;28;19914;-48
2024/03/03 14:21:15;;;;;;;;;;;;;;;;;;4954621;28;19972;-45
2024/03/03 14:23:41;;;;;;;;;;;;;;;;;;4973715;28;20328;-45
2024/03/03 14:26:07;;;;;;;;;;;;;;;;;;4970060;28;19915;-47
2024/03/03 14:28:35;;;;;;;;;;;;;;;;;;4976435;28;20462;-48
2024/03/03 14:31:01;;;;;;;;;;;;;;;;;;4973536;28;19914;-44
2024/03/03 14:33:27;;;;;;;;;;;;;;;;;;4974889;28;20430;-45
2024/03/03 14:35:53;;;;;;;;;;;;;;;;;;4975582;28;19953;-46
2024/03/03 14:38:19;;;;;;;;;;;;;;;;;;4966789;28;20031;-46
2024/03/03 14:40:45;;;;;;;;;;;;;;;;;;4977197;28;19961;-45
2024/03/03 14:43:11;;;;;;;;;;;;;;;;;;4981260;28;19973;-46
2024/03/03 14:45:37;;;;;;;;;;;;;;;;;;4967012;28;19914;-44
2024/03/03 14:48:03;;;;;;;;;;;;;;;;;;4979544;28;20292;-44
2024/03/03 14:50:29;;;;;;;;;;;;;;;;;;4978637;28;19922;-45
2024/03/03 14:52:55;;;;;;;;;;;;;;;;;;4979271;28;19914;-45
2024/03/03 14:55:21;;;;;;;;;;;;;;;;;;4973077;28;19921;-44
2024/03/03 14:57:47;;;;;;;;;;;;;;;;;;4962619;28;20013;-47
2024/03/03 15:00:13;;;;;;;;;;;;;;;;;;4965976;28;20296;-45
2024/03/03 15:02:39;;;;;;;;;;;;;;;;;;4965904;28;19915;-45
2024/03/03 15:05:04;;;;;;;;;;;;;;;;;;4980097;28;19918;-44
2024/03/03 15:07:30;;;;;;;;;;;;;;;;;;4974608;28;20336;-44
2024/03/03 15:09:58;;;;;;;;;;;;;;;;;;4972367;28;20062;-44
2024/03/03 15:12:24;;;;;;;;;;;;;;;;;;4988651;28;20297;-45
2024/03/03 15:14:50;;;;;;;;;;;;;;;;;;4993609;28;19916;-44
2024/03/03 15:17:16;;;;;;;;;;;;;;;;;;4975269;28;19910;-44
2024/03/03 15:19:42;;;;;;;;;;;;;;;;;;4973397;28;19964;-45
2024/03/03 15:22:08;;;;;;;;;;;;;;;;;;4988890;28;19921;-45
2024/03/03 15:24:34;;;;;;;;;;;;;;;;;;4974835;28;19914;-45
2024/03/03 15:26:59;;;;;;;;;;;;;;;;;;4955580;28;19922;-45
2024/03/03 15:29:25;;;;;;;;;;;;;;;;;;4959651;28;19983;-45
2024/03/03 15:31:51;;;;;;;;;;;;;;;;;;4978093;28;19964;-45
2024/03/03 15:34:18;;;;;;;;;;;;;;;;;;4977276;28;19910;-46
2024/03/03 15:36:44;;;;;;;;;;;;;;;;;;4959014;28;19925;-46
2024/03/03 15:39:10;;;;;;;;;;;;;;;;;;4975134;28;21003;-45
2024/03/03 15:41:36;;;;;;;;;;;;;;;;;;4988011;28;20004;-46
2024/03/03 15:44:02;;;;;;;;;;;;;;;;;;4974781;28;19918;-45
2024/03/03 15:46:28;;;;;;;;;;;;;;;;;;4983059;28;19910;-47
2024/03/03 15:48:54;;;;;;;;;;;;;;;;;;4976446;28;19937;-46
2024/03/03 15:51:20;;;;;;;;;;;;;;;;;;4970374;28;20001;-46
2024/03/03 15:53:45;;;;;;;;;;;;;;;;;;4982958;28;19918;-46
2024/03/03 15:56:11;;;;;;;;;;;;;;;;;;4984324;28;19918;-45
2024/03/03 15:58:37;;;;;;;;;;;;;;;;;;4978524;28;20756;-46
2024/03/03 16:01:04;;;;;;;;;;;;;;;;;;4975314;28;19914;-45
2024/03/03 16:03:30;;;;;;;;;;;;;;;;;;4959975;28;20371;-49
2024/03/03 16:05:57;;;;;;;;;;;;;;;;;;4971597;28;21380;-47
2024/03/03 16:08:23;;;;;;;;;;;;;;;;;;4983029;28;19914;-49
2024/03/03 16:10:53;;;;;;;;;;;;;;;;;;4978617;28;19917;-43
2024/03/03 16:13:19;;;;;;;;;;;;;;;;;;4962739;28;19922;-44
2024/03/03 16:15:52;;;;;;;;;;;;;;;;;;4959476;28;19941;-45
2024/03/03 16:18:17;;;;;;;;;;;;;;;;;;4971251;28;20371;-46
2024/03/03 16:20:44;;;;;;;;;;;;;;;;;;4976113;28;20008;-50
2024/03/03 16:23:11;;;;;;;;;;;;;;;;;;4986052;28;19972;-46
2024/03/03 16:25:37;;;;;;;;;;;;;;;;;;4984213;28;20334;-44
2024/03/03 16:28:03;;;;;;;;;;;;;;;;;;4980981;28;19914;-46
2024/03/03 16:30:30;;;;;;;;;;;;;;;;;;4979040;28;19921;-44
2024/03/03 16:32:55;;;;;;;;;;;;;;;;;;4980807;28;19957;-46
2024/03/03 16:35:21;;;;;;;;;;;;;;;;;;4978470;28;19960;-44
2024/03/03 16:37:50;;;;;;;;;;;;;;;;;;4971817;28;20287;-46
2024/03/03 16:40:16;;;;;;;;;;;;;;;;;;4974522;28;19914;-47
2024/03/03 16:42:42;;;;;;;;;;;;;;;;;;4972112;28;19925;-44
2024/03/03 16:45:08;;;;;;;;;;;;;;;;;;4971936;28;20345;-44
2024/03/03 16:47:34;;;;;;;;;;;;;;;;;;4972049;28;19914;-47
2024/03/03 16:50:00;;;;;;;;;;;;;;;;;;4974366;28;20375;-45
2024/03/03 16:52:26;;;;;;;;;;;;;;;;;;4988155;28;20383;-47
2024/03/03 16:54:52;;;;;;;;;;;;;;;;;;4970064;28;19914;-46
2024/03/03 16:57:18;;;;;;;;;;;;;;;;;;4984636;28;19914;-45
2024/03/03 16:59:44;;;;;;;;;;;;;;;;;;4973788;28;19924;-44
2024/03/03 17:02:10;;;;;;;;;;;;;;;;;;4976810;28;19925;-44
2024/03/03 17:04:36;;;;;;;;;;;;;;;;;;4965486;28;20450;-44
2024/03/03 17:07:02;;;;;;;;;;;;;;;;;;4980854;28;19914;-46
2024/03/03 17:09:27;;;;;;;;;;;;;;;;;;4965603;28;19925;-43
2024/03/03 17:11:53;;;;;;;;;;;;;;;;;;4974847;28;19921;-47
2024/03/03 17:14:19;;;;;;;;;;;;;;;;;;4980515;28;20437;-44
2024/03/03 17:16:45;;;;;;;;;;;;;;;;;;4975149;28;19922;-43
2024/03/03 17:19:11;;;;;;;;;;;;;;;;;;4972801;28;19914;-43
2024/03/03 17:21:37;;;;;;;;;;;;;;;;;;4971278;28;19945;-44
2024/03/03 17:24:03;;;;;;;;;;;;;;;;;;4982567;28;19914;-43
2024/03/03 17:26:30;;;;;;;;;;;;;;;;;;4972423;28;19914;-46
2024/03/03 17:28:56;;;;;;;;;;;;;;;;;;4977487;28;19924;-47
2024/03/03 17:31:22;;;;;;;;;;;;;;;;;;4988001;28;20295;-46
2024/03/03 17:33:49;;;;;;;;;;;;;;;;;;4968834;28;19914;-45
2024/03/03 17:36:15;;;;;;;;;;;;;;;;;;4971613;28;20359;-46
2024/03/03 17:38:41;;;;;;;;;;;;;;;;;;4970255;28;19929;-43
2024/03/03 17:41:08;;;;;;;;;;;;;;;;;;4956807;28;19914;-43
2024/03/03 17:43:34;;;;;;;;;;;;;;;;;;4976024;28;19919;-45
2024/03/03 17:46:00;;;;;;;;;;;;;;;;;;4980464;28;19914;-43
2024/03/03 17:48:25;;;;;;;;;;;;;;;;;;4979149;28;19914;-44
2024/03/03 17:50:51;;;;;;;;;;;;;;;;;;4971383;28;19914;-47
2024/03/03 17:53:19;;;;;;;;;;;;;;;;;;4976349;28;20384;-46
2024/03/03 17:55:47;;;;;;;;;;;;;;;;;;4981927;28;20302;-45
2024/03/03 17:58:13;;;;;;;;;;;;;;;;;;4956633;28;20455;-43
2024/03/03 18:00:39;;;;;;;;;;;;;;;;;;4970885;28;19961;-43
2024/03/03 18:03:05;;;;;;;;;;;;;;;;;;4973986;28;19918;-47
2024/03/03 18:05:32;;;;;;;;;;;;;;;;;;4974893;28;19915;-43
2024/03/03 18:07:58;;;;;;;;;;;;;;;;;;4973548;28;19955;-45
2024/03/03 18:10:24;;;;;;;;;;;;;;;;;;4972062;28;20006;-43
2024/03/03 18:12:50;;;;;;;;;;;;;;;;;;4962223;28;20295;-47
2024/03/03 18:15:16;;;;;;;;;;;;;;;;;;4967374;28;19949;-45
2024/03/03 18:17:42;;;;;;;;;;;;;;;;;;4976709;28;19918;-43
2024/03/03 18:20:08;;;;;;;;;;;;;;;;;;4977474;28;20477;-44
2024/03/03 18:22:35;;;;;;;;;;;;;;;;;;4976001;28;19922;-44
2024/03/03 18:25:01;;;;;;;;;;;;;;;;;;4979161;28;19921;-43
2024/03/03 18:27:27;;;;;;;;;;;;;;;;;;4972337;28;19914;-43
2024/03/03 18:29:54;;;;;;;;;;;;;;;;;;4969756;28;20307;-44
2024/03/03 18:32:19;;;;;;;;;;;;;;;;;;4982160;28;19915;-44
2024/03/03 18:34:46;;;;;;;;;;;;;;;;;;4976902;28;19926;-42
2024/03/03 18:37:12;;;;;;;;;;;;;;;;;;4991259;28;19960;-45
2024/03/03 18:39:38;;;;;;;;;;;;;;;;;;4987645;28;19983;-43
2024/03/03 18:42:04;;;;;;;;;;;;;;;;;;4982206;28;19922;-45
2024/03/03 18:44:32;;;;;;;;;;;;;;;;;;4994395;28;20051;-43
2024/03/03 18:46:59;;;;;;;;;;;;;;;;;;4993965;28;19952;-48
2024/03/03 18:49:25;;;;;;;;;;;;;;;;;;4985906;28;19915;-43
2024/03/03 18:51:55;;;;;;;;;;;;;;;;;;4970586;28;20451;-44
2024/03/03 18:54:20;;;;;;;;;;;;;;;;;;4983596;28;19918;-43
2024/03/03 18:56:48;;;;;;;;;;;;;;;;;;4973589;28;19925;-44
2024/03/03 18:59:13;;;;;;;;;;;;;;;;;;4970567;28;19922;-43
2024/03/03 19:01:39;;;;;;;;;;;;;;;;;;4976126;28;20282;-46
2024/03/03 19:04:05;;;;;;;;;;;;;;;;;;4989362;28;19941;-43
2024/03/03 19:06:32;;;;;;;;;;;;;;;;;;4974993;28;19961;-43
2024/03/03 19:08:58;;;;;;;;;;;;;;;;;;4969972;28;19920;-46
2024/03/03 19:11:23;;;;;;;;;;;;;;;;;;4977344;28;20000;-47
2024/03/03 19:13:49;;;;;;;;;;;;;;;;;;4986953;28;19918;-45
2024/03/03 19:16:15;;;;;;;;;;;;;;;;;;4975749;28;19921;-45
2024/03/03 19:18:41;;;;;;;;;;;;;;;;;;4983082;28;20300;-46
2024/03/03 19:21:08;;;;;;;;;;;;;;;;;;4982718;28;19952;-45
2024/03/03 19:23:34;;;;;;;;;;;;;;;;;;4972729;28;19918;-47
2024/03/03 19:26:00;;;;;;;;;;;;;;;;;;4982935;28;19922;-43
2024/03/03 19:28:26;;;;;;;;;;;;;;;;;;4972981;28;20383;-43
2024/03/03 19:30:52;;;;;;;;;;;;;;;;;;4977850;28;19941;-45
2024/03/03 19:33:19;;;;;;;;;;;;;;;;;;4966140;28;19913;-43
2024/03/03 19:35:45;;;;;;;;;;;;;;;;;;4980656;28;19922;-43
2024/03/03 19:38:11;;;;;;;;;;;;;;;;;;4972963;28;19918;-44
2024/03/03 19:40:37;;;;;;;;;;;;;;;;;;4986697;28;20004;-43
2024/03/03 19:43:03;;;;;;;;;;;;;;;;;;4984855;28;19914;-43
2024/03/03 19:45:29;;;;;;;;;;;;;;;;;;4972355;28;19922;-46
2024/03/03 19:47:55;;;;;;;;;;;;;;;;;;4986496;28;19922;-43
2024/03/03 19:50:21;;;;;;;;;;;;;;;;;;4986312;28;19910;-47
2024/03/03 19:52:47;;;;;;;;;;;;;;;;;;4983796;28;20000;-43
2024/03/03 19:55:13;;;;;;;;;;;;;;;;;;4972582;28;19914;-46
2024/03/03 19:57:38;;;;;;;;;;;;;;;;;;4977407;28;20268;-45
2024/03/03 20:00:14;;;;;;;;;;;;;;;;;;4973733;28;19957;-43
2024/03/03 20:02:44;;;;;;;;;;;;;;;;;;4970586;28;20403;-44
2024/03/03 20:05:09;;;;;;;;;;;;;;;;;;4973605;28;19925;-44
2024/03/03 20:07:35;;;;;;;;;;;;;;;;;;4989088;28;19913;-45
2024/03/03 20:10:01;;;;;;;;;;;;;;;;;;4981537;28;19909;-43
2024/03/03 20:12:27;;;;;;;;;;;;;;;;;;4982438;28;19924;-44
2024/03/03 20:14:53;;;;;;;;;;;;;;;;;;4984612;28;19910;-44
2024/03/03 20:17:19;;;;;;;;;;;;;;;;;;4973245;28;20380;-42
2024/03/03 20:19:46;;;;;;;;;;;;;;;;;;4971109;28;19914;-43
2024/03/03 20:22:11;;;;;;;;;;;;;;;;;;4984641;28;20000;-44
2024/03/03 20:24:37;;;;;;;;;;;;;;;;;;4979482;28;20008;-43
2024/03/03 20:27:04;;;;;;;;;;;;;;;;;;4974835;28;19910;-44
2024/03/03 20:29:31;;;;;;;;;;;;;;;;;;4977457;28;19914;-44
2024/03/03 20:31:57;;;;;;;;;;;;;;;;;;4954210;28;19965;-44
2024/03/03 20:34:23;;;;;;;;;;;;;;;;;;4972960;28;20339;-43
2024/03/03 20:36:49;;;;;;;;;;;;;;;;;;4972324;28;19918;-44
2024/03/03 20:39:15;;;;;;;;;;;;;;;;;;4971577;28;20454;-44
2024/03/03 20:41:43;;;;;;;;;;;;;;;;;;4972113;28;20001;-44
2024/03/03 20:44:09;;;;;;;;;;;;;;;;;;4986181;28;19914;-48
2024/03/03 20:46:35;;;;;;;;;;;;;;;;;;4968264;28;19917;-47
2024/03/03 20:49:01;;;;;;;;;;;;;;;;;;4990263;28;20272;-46
2024/03/03 20:51:26;;;;;;;;;;;;;;;;;;4989519;28;19921;-44
2024/03/03 20:53:54;;;;;;;;;;;;;;;;;;4990989;28;19914;-44
2024/03/03 20:56:20;;;;;;;;;;;;;;;;;;4990293;28;19909;-46
2024/03/03 20:58:46;;;;;;;;;;;;;;;;;;4971590;28;19962;-48
2024/03/03 21:01:12;;;;;;;;;;;;;;;;;;4978630;28;19920;-44
2024/03/03 21:03:38;;;;;;;;;;;;;;;;;;4979556;28;19918;-45
2024/03/03 21:06:06;;;;;;;;;;;;;;;;;;4983076;28;20005;-47
2024/03/03 21:08:32;;;;;;;;;;;;;;;;;;4983888;28;19913;-43
2024/03/03 21:10:58;;;;;;;;;;;;;;;;;;4972224;28;19917;-43
2024/03/03 21:13:24;;;;;;;;;;;;;;;;;;4990456;28;20355;-44
2024/03/03 21:15:50;;;;;;;;;;;;;;;;;;4991123;28;19909;-45
2024/03/03 21:18:15;;;;;;;;;;;;;;;;;;4963383;28;19918;-45
2024/03/03 21:20:43;;;;;;;;;;;;;;;;;;4972620;28;19914;-46
2024/03/03 21:23:09;;;;;;;;;;;;;;;;;;4988503;28;19918;-45
2024/03/03 21:25:35;;;;;;;;;;;;;;;;;;4961662;28;19977;-47
2024/03/03 21:28:01;;;;;;;;;;;;;;;;;;4979912;28;19956;-47
2024/03/03 21:30:27;;;;;;;;;;;;;;;;;;4970490;28;20303;-44
2024/03/03 21:32:53;;;;;;;;;;;;;;;;;;4972188;28;19941;-44
2024/03/03 21:35:18;;;;;;;;;;;;;;;;;;4970422;28;19960;-44
2024/03/03 21:37:44;;;;;;;;;;;;;;;;;;4971137;28;19921;-43
2024/03/03 21:40:13;;;;;;;;;;;;;;;;;;4971857;28;19925;-43
2024/03/03 21:42:39;;;;;;;;;;;;;;;;;;4988983;28;20388;-43
2024/03/03 21:45:09;;;;;;;;;;;;;;;;;;4987891;28;20005;-43
2024/03/03 21:47:34;;;;;;;;;;;;;;;;;;4973077;28;20310;-43
2024/03/03 21:50:00;;;;;;;;;;;;;;;;;;4988302;28;19914;-43
2024/03/03 21:52:26;;;;;;;;;;;;;;;;;;4991037;28;19917;-43
2024/03/03 21:54:52;;;;;;;;;;;;;;;;;;4988711;28;19914;-44
2024/03/03 21:57:19;;;;;;;;;;;;;;;;;;4986209;28;19910;-44
2024/03/03 21:59:45;;;;;;;;;;;;;;;;;;4982403;28;19925;-44
2024/03/03 22:02:11;;;;;;;;;;;;;;;;;;4976148;28;19918;-43
2024/03/03 22:04:37;;;;;;;;;;;;;;;;;;4971187;28;20323;-44
2024/03/03 22:07:03;;;;;;;;;;;;;;;;;;4971469;28;20272;-43
2024/03/03 22:09:29;;;;;;;;;;;;;;;;;;4974381;28;20000;-43
2024/03/03 22:11:55;;;;;;;;;;;;;;;;;;4975081;28;20009;-43
2024/03/03 22:14:22;;;;;;;;;;;;;;;;;;4990770;28;19914;-43
2024/03/03 22:16:48;;;;;;;;;;;;;;;;;;4975052;28;19997;-44
2024/03/03 22:19:15;;;;;;;;;;;;;;;;;;4974847;28;19949;-43
2024/03/03 22:21:41;;;;;;;;;;;;;;;;;;4974890;28;19920;-43
2024/03/03 22:24:07;;;;;;;;;;;;;;;;;;4990120;28;19910;-46
2024/03/03 22:26:33;;;;;;;;;;;;;;;;;;4988650;28;19915;-43
2024/03/03 22:28:59;;;;;;;;;;;;;;;;;;4989848;28;19958;-45
2024/03/03 22:31:25;;;;;;;;;;;;;;;;;;4973658;28;20299;-45
2024/03/03 22:33:50;;;;;;;;;;;;;;;;;;4957584;28;20408;-44
2024/03/03 22:36:17;;;;;;;;;;;;;;;;;;4974935;28;19925;-46
2024/03/03 22:38:42;;;;;;;;;;;;;;;;;;4974287;28;20038;-46